Time,TemperatureF,DewpointF,PressureIn,WindDirection,WindDirectionDegrees,WindSpeedMPH,WindSpeedGustMPH,Humidity,HourlyPrecipIn,Conditions,Clouds,dailyrainin,SoftwareType,DateUTC
2013-02-16 00:02:00,-999.0,-99.9,30.02,NNW,348,6.0,10.0,-999,-99.99,,,-99.99,,2013-02-16 05:02:00,
2013-02-16 00:12:00,-999.0,-99.9,30.02,NNW,341,6.0,8.0,-999,-99.99,,,-99.99,,2013-02-16 05:12:00,
2013-02-16 00:22:00,-999.0,-99.9,30.02,NNW,335,5.0,9.0,-999,-99.99,,,-99.99,,2013-02-16 05:22:00,
2013-02-16 00:32:00,60.0,-99.9,30.01,North,-999,-999.0,-999.0,-999,-99.99,,,-99.99,,2013-02-16 05:32:00,
2013-02-16 00:42:00,-999.0,-99.9,30.01,NNW,340,7.0,10.0,-999,-99.99,,,-99.99,,2013-02-16 05:42:00,
2013-02-16 00:52:00,60.0,-99.9,30.02,North,-999,-999.0,-999.0,-999,-99.99,,,-99.99,,2013-02-16 05:52:00,
2013-02-16 01:02:00,60.0,-99.9,30.02,North,-999,-999.0,-999.0,-999,-99.99,,,-99.99,,2013-02-16 06:02:00,
2013-02-16 01:22:00,-999.0,-99.9,30.01,NNW,344,6.0,10.0,-999,-99.99,,,-99.99,,2013-02-16 06:22:00,
2013-02-16 01:42:00,-999.0,-99.9,30.01,NNW,347,6.0,9.0,-999,-99.99,,,-99.99,,2013-02-16 06:42:00,
2013-02-16 01:52:00,-999.0,-99.9,30.00,NNW,343,5.0,8.0,-999,-99.99,,,-99.99,,2013-02-16 06:52:00,
2013-02-16 02:02:00,59.0,-99.9,29.99,North,-999,-999.0,-999.0,-999,-99.99,,,-99.99,,2013-02-16 07:02:00,
2013-02-16 02:11:00,-999.0,-99.9,29.99,North,357,6.0,8.0,-999,-99.99,,,-99.99,,2013-02-16 07:11:00,
2013-02-16 02:22:00,59.0,-99.9,30.00,North,-999,-999.0,-999.0,-999,-99.99,,,-99.99,,2013-02-16 07:22:00,
2013-02-16 02:32:00,-999.0,-99.9,29.99,NNW,346,6.0,9.0,-999,-99.99,,,-99.99,,2013-02-16 07:32:00,
2013-02-16 02:42:00,59.0,-99.9,29.99,North,-999,-999.0,-999.0,-999,-99.99,,,-99.99,,2013-02-16 07:42:00,
2013-02-16 02:53:00,-999.0,-99.9,29.99,NNW,348,5.0,8.0,-999,-99.99,,,-99.99,,2013-02-16 07:53:00,
2013-02-16 03:32:00,-999.0,-99.9,29.99,North,354,5.0,8.0,-999,-99.99,,,-99.99,,2013-02-16 08:32:00,
2013-02-16 03:42:00,58.0,-99.9,29.99,North,-999,-999.0,-999.0,-999,-99.99,,,-99.99,,2013-02-16 08:42:00,
2013-02-16 03:52:00,-999.0,-99.9,29.99,North,358,5.0,8.0,-999,-99.99,,,-99.99,,2013-02-16 08:52:00,
2013-02-16 04:02:00,58.0,-99.9,29.99,North,-999,-999.0,-999.0,-999,-99.99,,,-99.99,,2013-02-16 09:02:00,
2013-02-16 04:11:00,-999.0,-99.9,29.99,North,354,6.0,9.0,-999,-99.99,,,-99.99,,2013-02-16 09:11:00,
2013-02-16 04:21:00,-999.0,-99.9,29.98,North,355,6.0,10.0,-999,-99.99,,,-99.99,,2013-02-16 09:21:00,
2013-02-16 04:43:00,-999.0,-99.9,29.98,North,357,6.0,11.0,-999,-99.99,,,-99.99,,2013-02-16 09:43:00,
2013-02-16 04:52:00,57.0,-99.9,29.99,North,-999,-999.0,-999.0,-999,-99.99,,,-99.99,,2013-02-16 09:52:00,
2013-02-16 05:01:00,-999.0,-99.9,29.98,North,358,6.0,9.0,-999,-99.99,,,-99.99,,2013-02-16 10:01:00,
2013-02-16 05:22:00,-999.0,-99.9,29.98,North,353,8.0,11.0,-999,-99.99,,,-99.99,,2013-02-16 10:22:00,
2013-02-16 05:32:00,-999.0,-99.9,29.98,North,355,7.0,11.0,-999,-99.99,,,-99.99,,2013-02-16 10:32:00,
2013-02-16 05:42:00,56.0,-99.9,29.98,North,-999,-999.0,-999.0,-999,-99.99,,,-99.99,,2013-02-16 10:42:00,
2013-02-16 05:52:00,-999.0,-99.9,29.98,North,358,8.0,12.0,-999,-99.99,,,-99.99,,2013-02-16 10:52:00,
2013-02-16 06:02:00,-999.0,-99.9,29.99,North,358,7.0,12.0,-999,-99.99,,,-99.99,,2013-02-16 11:02:00,
2013-02-16 06:11:00,-999.0,-99.9,29.98,North,6,6.0,9.0,-999,-99.99,,,-99.99,,2013-02-16 11:11:00,
2013-02-16 06:22:00,-999.0,-99.9,29.98,North,6,6.0,9.0,-999,-99.99,,,-99.99,,2013-02-16 11:22:00,
2013-02-16 06:32:00,56.0,-99.9,29.98,North,-999,-999.0,-999.0,-999,-99.99,,,-99.99,,2013-02-16 11:32:00,
2013-02-16 06:42:00,56.0,-99.9,29.98,North,-999,-999.0,-999.0,-999,-99.99,,,-99.99,,2013-02-16 11:42:00,
2013-02-16 06:52:00,56.0,-99.9,29.99,North,-999,-999.0,-999.0,-999,-99.99,,,-99.99,,2013-02-16 11:52:00,
2013-02-16 07:02:00,-999.0,-99.9,29.99,North,2,5.0,7.0,-999,-99.99,,,-99.99,,2013-02-16 12:02:00,
2013-02-16 07:22:00,-999.0,-99.9,29.99,North,6,3.0,6.0,-999,-99.99,,,-99.99,,2013-02-16 12:22:00,
2013-02-16 07:32:00,-999.0,-99.9,29.99,North,359,3.0,6.0,-999,-99.99,,,-99.99,,2013-02-16 12:32:00,
2013-02-16 07:42:00,56.0,-99.9,29.99,North,-999,-999.0,-999.0,-999,-99.99,,,-99.99,,2013-02-16 12:42:00,
2013-02-16 07:52:00,-999.0,-99.9,29.99,North,353,4.0,5.0,-999,-99.99,,,-99.99,,2013-02-16 12:52:00,
2013-02-16 08:02:00,-999.0,-99.9,30.00,North,353,3.0,4.0,-999,-99.99,,,-99.99,,2013-02-16 13:02:00,
2013-02-16 08:12:00,-999.0,-99.9,30.00,North,354,3.0,4.0,-999,-99.99,,,-99.99,,2013-02-16 13:12:00,
2013-02-16 08:22:00,-999.0,-99.9,30.00,North,351,3.0,5.0,-999,-99.99,,,-99.99,,2013-02-16 13:22:00,
2013-02-16 08:32:00,-999.0,-99.9,30.00,NNW,344,3.0,5.0,-999,-99.99,,,-99.99,,2013-02-16 13:32:00,
2013-02-16 08:42:00,57.0,-99.9,30.00,North,-999,-999.0,-999.0,-999,-99.99,,,-99.99,,2013-02-16 13:42:00,
2013-02-16 08:52:00,58.0,-99.9,30.00,North,-999,-999.0,-999.0,-999,-99.99,,,-99.99,,2013-02-16 13:52:00,
2013-02-16 09:01:00,58.0,-99.9,30.01,North,-999,-999.0,-999.0,-999,-99.99,,,-99.99,,2013-02-16 14:01:00,
2013-02-16 09:21:00,-999.0,-99.9,30.01,North,3,5.0,6.0,-999,-99.99,,,-99.99,,2013-02-16 14:21:00,
2013-02-16 09:32:00,-999.0,-99.9,30.01,NNW,341,3.0,5.0,-999,-99.99,,,-99.99,,2013-02-16 14:32:00,
2013-02-16 09:42:00,60.0,-99.9,30.01,North,-999,-999.0,-999.0,-999,-99.99,,,-99.99,,2013-02-16 14:42:00,
2013-02-16 09:52:00,-999.0,-99.9,30.01,North,349,5.0,7.0,-999,-99.99,,,-99.99,,2013-02-16 14:52:00,
2013-02-16 10:02:00,61.0,-99.9,30.02,North,-999,-999.0,-999.0,-999,-99.99,,,-99.99,,2013-02-16 15:02:00,
2013-02-16 10:22:00,-999.0,-99.9,30.03,NW,310,10.0,13.0,-999,-99.99,,,-99.99,,2013-02-16 15:22:00,
2013-02-16 10:32:00,62.0,-99.9,30.03,North,-999,-999.0,-999.0,-999,-99.99,,,-99.99,,2013-02-16 15:32:00,
2013-02-16 10:42:00,-999.0,-99.9,30.03,NW,308,13.0,17.0,-999,-99.99,,,-99.99,,2013-02-16 15:42:00,
2013-02-16 10:52:00,-999.0,-99.9,30.04,WNW,302,13.0,16.0,-999,-99.99,,,-99.99,,2013-02-16 15:52:00,
2013-02-16 11:11:00,-999.0,-99.9,30.04,NW,306,14.0,18.0,-999,-99.99,,,-99.99,,2013-02-16 16:11:00,
2013-02-16 11:22:00,64.0,-99.9,30.04,North,-999,-999.0,-999.0,-999,-99.99,,,-99.99,,2013-02-16 16:22:00,
2013-02-16 11:32:00,-999.0,-99.9,30.04,WNW,291,17.0,24.0,-999,-99.99,,,-99.99,,2013-02-16 16:32:00,
2013-02-16 11:42:00,-999.0,-99.9,30.04,WNW,293,18.0,23.0,-999,-99.99,,,-99.99,,2013-02-16 16:42:00,
2013-02-16 11:52:00,-999.0,-99.9,30.03,NW,308,13.0,23.0,-999,-99.99,,,-99.99,,2013-02-16 16:52:00,
2013-02-16 12:01:00,64.0,-99.9,30.04,North,-999,-999.0,-999.0,-999,-99.99,,,-99.99,,2013-02-16 17:01:00,
2013-02-16 12:11:00,-999.0,-99.9,30.03,NW,317,15.0,22.0,-999,-99.99,,,-99.99,,2013-02-16 17:11:00,
2013-02-16 12:22:00,-999.0,-99.9,30.03,NW,308,16.0,21.0,-999,-99.99,,,-99.99,,2013-02-16 17:22:00,
2013-02-16 12:42:00,-999.0,-99.9,30.03,West,277,15.0,21.0,-999,-99.99,,,-99.99,,2013-02-16 17:42:00,
2013-02-16 12:52:00,65.0,-99.9,30.02,North,-999,-999.0,-999.0,-999,-99.99,,,-99.99,,2013-02-16 17:52:00,
2013-02-16 13:02:00,-999.0,-99.9,30.02,WNW,290,20.0,25.0,-999,-99.99,,,-99.99,,2013-02-16 18:02:00,
2013-02-16 13:11:00,-999.0,-99.9,30.01,WNW,298,18.0,25.0,-999,-99.99,,,-99.99,,2013-02-16 18:11:00,
2013-02-16 13:22:00,65.0,-99.9,30.01,North,-999,-999.0,-999.0,-999,-99.99,,,-99.99,,2013-02-16 18:22:00,
2013-02-16 13:33:00,-999.0,-99.9,30.01,WNW,283,16.0,25.0,-999,-99.99,,,-99.99,,2013-02-16 18:33:00,
2013-02-16 13:42:00,-999.0,-99.9,30.01,NW,309,16.0,23.0,-999,-99.99,,,-99.99,,2013-02-16 18:42:00,
2013-02-16 13:52:00,-999.0,-99.9,30.01,WNW,289,16.0,21.0,-999,-99.99,,,-99.99,,2013-02-16 18:52:00,
2013-02-16 14:02:00,-999.0,-99.9,30.02,NW,304,15.0,20.0,-999,-99.99,,,-99.99,,2013-02-16 19:02:00,
2013-02-16 14:22:00,61.0,-99.9,30.01,North,-999,-999.0,-999.0,-999,-99.99,,,-99.99,,2013-02-16 19:22:00,
2013-02-16 14:42:00,62.0,-99.9,30.01,North,-999,-999.0,-999.0,-999,-99.99,,,-99.99,,2013-02-16 19:42:00,
2013-02-16 14:52:00,61.0,-99.9,30.02,North,-999,-999.0,-999.0,-999,-99.99,,,-99.99,,2013-02-16 19:52:00,
2013-02-16 15:02:00,59.0,-99.9,30.03,North,-999,-999.0,-999.0,-999,-99.99,,,-99.99,,2013-02-16 20:02:00,
2013-02-16 15:11:00,-999.0,-99.9,30.03,NW,318,19.0,26.0,-999,-99.99,,,-99.99,,2013-02-16 20:11:00,
2013-02-16 15:22:00,60.0,-99.9,30.03,North,-999,-999.0,-999.0,-999,-99.99,,,-99.99,,2013-02-16 20:22:00,
2013-02-16 15:32:00,-999.0,-99.9,30.03,NNW,336,17.0,30.0,-999,-99.99,,,-99.99,,2013-02-16 20:32:00,
2013-02-16 15:42:00,59.0,-99.9,30.03,North,-999,-999.0,-999.0,-999,-99.99,,,-99.99,,2013-02-16 20:42:00,
2013-02-16 15:52:00,59.0,-99.9,30.04,North,-999,-999.0,-999.0,-999,-99.99,,,-99.99,,2013-02-16 20:52:00,
2013-02-16 16:02:00,-999.0,-99.9,30.04,NNW,333,14.0,24.0,-999,-99.99,,,-99.99,,2013-02-16 21:02:00,
2013-02-16 16:11:00,-999.0,-99.9,30.04,NNW,335,15.0,22.0,-999,-99.99,,,-99.99,,2013-02-16 21:11:00,
2013-02-16 16:22:00,58.0,-99.9,30.04,North,-999,-999.0,-999.0,-999,-99.99,,,-99.99,,2013-02-16 21:22:00,
2013-02-16 16:32:00,-999.0,-99.9,30.05,NNW,333,19.0,26.0,-999,-99.99,,,-99.99,,2013-02-16 21:32:00,
2013-02-16 16:42:00,57.0,-99.9,30.05,North,-999,-999.0,-999.0,-999,-99.99,,,-99.99,,2013-02-16 21:42:00,
2013-02-16 16:52:00,-999.0,-99.9,30.04,NW,323,13.0,24.0,-999,-99.99,,,-99.99,,2013-02-16 21:52:00,
2013-02-16 17:02:00,-999.0,-99.9,30.04,NW,323,13.0,18.0,-999,-99.99,,,-99.99,,2013-02-16 22:02:00,
2013-02-16 17:22:00,58.0,-99.9,30.04,North,-999,-999.0,-999.0,-999,-99.99,,,-99.99,,2013-02-16 22:22:00,
2013-02-16 17:42:00,58.0,-99.9,30.04,North,-999,-999.0,-999.0,-999,-99.99,,,-99.99,,2013-02-16 22:42:00,
2013-02-16 17:52:00,-999.0,-99.9,30.05,NNW,329,14.0,22.0,-999,-99.99,,,-99.99,,2013-02-16 22:52:00,
2013-02-16 18:02:00,58.0,-99.9,30.05,North,-999,-999.0,-999.0,-999,-99.99,,,-99.99,,2013-02-16 23:02:00,
2013-02-16 18:11:00,-999.0,-99.9,30.05,NW,308,18.0,23.0,-999,-99.99,,,-99.99,,2013-02-16 23:11:00,
2013-02-16 18:22:00,-999.0,-99.9,30.05,NW,309,11.0,23.0,-999,-99.99,,,-99.99,,2013-02-16 23:22:00,
2013-02-16 18:32:00,57.0,-99.9,30.05,North,-999,-999.0,-999.0,-999,-99.99,,,-99.99,,2013-02-16 23:32:00,
2013-02-16 18:42:00,-999.0,-99.9,30.06,NW,310,14.0,19.0,-999,-99.99,,,-99.99,,2013-02-16 23:42:00,
2013-02-16 18:52:00,-999.0,-99.9,30.06,NW,323,13.0,21.0,-999,-99.99,,,-99.99,,2013-02-16 23:52:00,
2013-02-16 19:22:00,58.0,-99.9,30.06,North,-999,-999.0,-999.0,-999,-99.99,,,-99.99,,2013-02-17 00:22:00,
2013-02-16 19:32:00,58.0,-99.9,30.07,North,-999,-999.0,-999.0,-999,-99.99,,,-99.99,,2013-02-17 00:32:00,
2013-02-16 19:42:00,58.0,-99.9,30.07,North,-999,-999.0,-999.0,-999,-99.99,,,-99.99,,2013-02-17 00:42:00,
2013-02-16 19:52:00,58.0,-99.9,30.08,North,-999,-999.0,-999.0,-999,-99.99,,,-99.99,,2013-02-17 00:52:00,
2013-02-16 20:01:00,-999.0,-99.9,30.08,NW,315,14.0,24.0,-999,-99.99,,,-99.99,,2013-02-17 01:01:00,
2013-02-16 20:22:00,-999.0,-99.9,30.08,NW,305,15.0,21.0,-999,-99.99,,,-99.99,,2013-02-17 01:22:00,
2013-02-16 20:32:00,-999.0,-99.9,30.08,WNW,301,14.0,22.0,-999,-99.99,,,-99.99,,2013-02-17 01:32:00,
2013-02-16 20:42:00,58.0,-99.9,30.09,North,-999,-999.0,-999.0,-999,-99.99,,,-99.99,,2013-02-17 01:42:00,
2013-02-16 20:52:00,-999.0,-99.9,30.09,NW,307,16.0,23.0,-999,-99.99,,,-99.99,,2013-02-17 01:52:00,
2013-02-16 21:21:00,-999.0,-99.9,30.11,NW,308,16.0,25.0,-999,-99.99,,,-99.99,,2013-02-17 02:21:00,
2013-02-16 21:32:00,-999.0,-99.9,30.12,NW,315,16.0,19.0,-999,-99.99,,,-99.99,,2013-02-17 02:32:00,
2013-02-16 21:42:00,57.0,-99.9,30.12,North,-999,-999.0,-999.0,-999,-99.99,,,-99.99,,2013-02-17 02:42:00,
2013-02-16 21:52:00,57.0,-99.9,30.12,North,-999,-999.0,-999.0,-999,-99.99,,,-99.99,,2013-02-17 02:52:00,
2013-02-16 22:11:00,-999.0,-99.9,30.13,NNW,327,16.0,27.0,-999,-99.99,,,-99.99,,2013-02-17 03:11:00,
2013-02-16 22:21:00,-999.0,-99.9,30.14,NW,323,10.0,15.0,-999,-99.99,,,-99.99,,2013-02-17 03:21:00,
2013-02-16 22:42:00,-999.0,-99.9,30.14,NW,320,15.0,20.0,-999,-99.99,,,-99.99,,2013-02-17 03:42:00,
2013-02-16 22:52:00,-999.0,-99.9,30.14,NW,324,15.0,20.0,-999,-99.99,,,-99.99,,2013-02-17 03:52:00,
2013-02-16 23:01:00,56.0,-99.9,30.14,North,-999,-999.0,-999.0,-999,-99.99,,,-99.99,,2013-02-17 04:01:00,
2013-02-16 23:11:00,-999.0,-99.9,30.15,NW,319,12.0,22.0,-999,-99.99,,,-99.99,,2013-02-17 04:11:00,
2013-02-16 23:22:00,-999.0,-99.9,30.14,NW,314,13.0,21.0,-999,-99.99,,,-99.99,,2013-02-17 04:22:00,
2013-02-16 23:32:00,-999.0,-99.9,30.15,NW,317,10.0,14.0,-999,-99.99,,,-99.99,,2013-02-17 04:32:00,
2013-02-16 23:42:00,56.0,-99.9,30.15,North,-999,-999.0,-999.0,-999,-99.99,,,-99.99,,2013-02-17 04:42:00,
2013-02-16 23:52:00,-999.0,-99.9,30.16,NW,323,12.0,21.0,-999,-99.99,,,-99.99,,2013-02-17 04:52:00,